sensor_id;sensor_type;location;lat;lon;timestamp;pressure;altitude;pressure_sealevel;temperature;humidity
38939;BME280;24211;49.980;19.776;2022-11-02T00:00:46;99780.22;;;10.75;100.00
38939;BME280;24211;49.980;19.776;2022-11-02T00:03:31;99775.69;;;10.75;100.00
38939;BME280;24211;49.980;19.776;2022-11-02T00:05:58;99778.97;;;10.77;100.00
38939;BME280;24211;49.980;19.776;2022-11-02T00:08:25;99765.81;;;10.76;100.00
38939;BME280;24211;49.980;19.776;2022-11-02T00:10:52;99770.94;;;10.77;100.00
38939;BME280;24211;49.980;19.776;2022-11-02T00:13:19;99763.75;;;10.78;100.00
38939;BME280;24211;49.980;19.776;2022-11-02T00:15:47;99772.59;;;10.78;100.00
38939;BME280;24211;49.980;19.776;2022-11-02T00:18:14;99763.75;;;10.78;100.00
38939;BME280;24211;49.980;19.776;2022-11-02T00:20:42;99769.09;;;10.78;100.00
38939;BME280;24211;49.980;19.776;2022-11-02T00:23:11;99777.94;;;10.78;100.00
38939;BME280;24211;49.980;19.776;2022-11-02T00:25:44;99779.78;;;10.78;100.00
38939;BME280;24211;49.980;19.776;2022-11-02T00:28:13;99770.94;;;10.77;100.00
38939;BME280;24211;49.980;19.776;2022-11-02T00:30:41;99780.63;;;10.78;100.00
38939;BME280;24211;49.980;19.776;2022-11-02T00:33:09;99773.63;;;10.77;100.00
38939;BME280;24211;49.980;19.776;2022-11-02T00:35:36;99774.44;;;10.78;100.00
38939;BME280;24211;49.980;19.776;2022-11-02T00:38:04;99774.44;;;10.78;100.00
38939;BME280;24211;49.980;19.776;2022-11-02T00:40:32;99775.47;;;10.77;100.00
38939;BME280;24211;49.980;19.776;2022-11-02T00:43:00;99778.97;;;10.77;100.00
38939;BME280;24211;49.980;19.776;2022-11-02T00:45:27;99772.78;;;10.77;100.00
38939;BME280;24211;49.980;19.776;2022-11-02T00:47:54;99775.47;;;10.77;100.00
38939;BME280;24211;49.980;19.776;2022-11-02T00:50:21;99778.13;;;10.77;100.00
38939;BME280;24211;49.980;19.776;2022-11-02T00:52:48;99773.00;;;10.75;100.00
38939;BME280;24211;49.980;19.776;2022-11-02T00:55:16;99774.88;;;10.75;100.00
38939;BME280;24211;49.980;19.776;2022-11-02T00:57:44;99781.88;;;10.76;100.00
38939;BME280;24211;49.980;19.776;2022-11-02T01:00:12;99778.13;;;10.77;100.00
38939;BME280;24211;49.980;19.776;2022-11-02T01:02:41;99774.88;;;10.75;100.00
38939;BME280;24211;49.980;19.776;2022-11-02T01:05:10;99781.03;;;10.75;100.00
38939;BME280;24211;49.980;19.776;2022-11-02T01:07:38;99780.22;;;10.75;100.00
38939;BME280;24211;49.980;19.776;2022-11-02T01:10:08;99779.38;;;10.74;100.00
38939;BME280;24211;49.980;19.776;2022-11-02T01:12:38;99777.53;;;10.75;100.00
38939;BME280;24211;49.980;19.776;2022-11-02T01:15:07;99769.50;;;10.75;100.00
38939;BME280;24211;49.980;19.776;2022-11-02T01:17:37;99768.69;;;10.74;100.00
38939;BME280;24211;49.980;19.776;2022-11-02T01:20:05;99765.81;;;10.76;100.00
38939;BME280;24211;49.980;19.776;2022-11-02T01:22:33;99773.22;;;10.74;100.00
38939;BME280;24211;49.980;19.776;2022-11-02T01:25:00;99775.88;;;10.74;100.00
38939;BME280;24211;49.980;19.776;2022-11-02T01:27:28;99775.09;;;10.73;100.00
38939;BME280;24211;49.980;19.776;2022-11-02T01:29:55;99777.53;;;10.75;100.00
38939;BME280;24211;49.980;19.776;2022-11-02T01:32:23;99771.59;;;10.73;100.00
38939;BME280;24211;49.980;19.776;2022-11-02T01:34:50;99777.75;;;10.73;100.00
38939;BME280;24211;49.980;19.776;2022-11-02T01:37:17;99772.63;;;10.72;100.00
38939;BME280;24211;49.980;19.776;2022-11-02T01:39:44;99769.16;;;10.71;100.00
38939;BME280;24211;49.980;19.776;2022-11-02T01:42:20;99774.50;;;10.71;100.00
38939;BME280;24211;49.980;19.776;2022-11-02T01:44:48;99777.34;;;10.70;100.00
38939;BME280;24211;49.980;19.776;2022-11-02T01:47:32;99777.34;;;10.70;100.00
38939;BME280;24211;49.980;19.776;2022-11-02T01:50:11;99777.34;;;10.70;100.00
38939;BME280;24211;49.980;19.776;2022-11-02T01:52:40;99779.44;;;10.68;100.00
38939;BME280;24211;49.980;19.776;2022-11-02T01:55:23;99777.78;;;10.67;100.00
38939;BME280;24211;49.980;19.776;2022-11-02T01:57:58;99778.81;;;10.66;100.00
38939;BME280;24211;49.980;19.776;2022-11-02T02:00:26;99785.78;;;10.67;100.00
38939;BME280;24211;49.980;19.776;2022-11-02T02:03:11;99790.53;;;10.65;100.00
38939;BME280;24211;49.980;19.776;2022-11-02T02:05:59;99783.56;;;10.64;100.00
38939;BME280;24211;49.980;19.776;2022-11-02T02:08:28;99785.63;;;10.62;100.00
38939;BME280;24211;49.980;19.776;2022-11-02T02:10:58;99790.97;;;10.62;100.00
38939;BME280;24211;49.980;19.776;2022-11-02T02:13:27;99794.69;;;10.61;100.00
38939;BME280;24211;49.980;19.776;2022-11-02T02:16:22;99796.31;;;10.62;100.00
38939;BME280;24211;49.980;19.776;2022-11-02T02:19:08;99789.34;;;10.61;100.00
38939;BME280;24211;49.980;19.776;2022-11-02T02:30:18;99789.75;;;10.58;100.00
38939;BME280;24211;49.980;19.776;2022-11-02T02:32:57;99779.47;;;10.55;100.00
38939;BME280;24211;49.980;19.776;2022-11-02T02:35:41;99785.66;;;10.55;100.00
38939;BME280;24211;49.980;19.776;2022-11-02T02:38:19;99792.25;;;10.52;100.00
38939;BME280;24211;49.980;19.776;2022-11-02T02:41:10;99795.16;;;10.51;100.00
38939;BME280;24211;49.980;19.776;2022-11-02T02:43:41;99792.66;;;10.49;100.00
38939;BME280;24211;49.980;19.776;2022-11-02T02:46:32;99791.03;;;10.48;100.00
38939;BME280;24211;49.980;19.776;2022-11-02T02:49:10;99793.91;;;10.47;100.00
38939;BME280;24211;49.980;19.776;2022-11-02T02:51:40;99795.16;;;10.44;100.00
38939;BME280;24211;49.980;19.776;2022-11-02T02:54:19;99804.63;;;10.40;100.00
38939;BME280;24211;49.980;19.776;2022-11-02T02:56:53;99810.38;;;10.37;100.00
38939;BME280;24211;49.980;19.776;2022-11-02T02:59:31;99818.63;;;10.36;100.00
38939;BME280;24211;49.980;19.776;2022-11-02T03:02:04;99811.63;;;10.35;100.00
38939;BME280;24211;49.980;19.776;2022-11-02T03:04:31;99810.81;;;10.34;100.00
38939;BME280;24211;49.980;19.776;2022-11-02T03:07:00;99809.19;;;10.33;100.00
38939;BME280;24211;49.980;19.776;2022-11-02T03:09:44;99818.22;;;10.32;100.00
38939;BME280;24211;49.980;19.776;2022-11-02T03:23:35;99819.06;;;10.26;100.00
38939;BME280;24211;49.980;19.776;2022-11-02T03:26:22;99819.50;;;10.23;100.00
38939;BME280;24211;49.980;19.776;2022-11-02T03:29:42;99815.38;;;10.21;100.00
38939;BME280;24211;49.980;19.776;2022-11-02T03:32:39;99820.94;;;10.19;100.00
38939;BME280;24211;49.980;19.776;2022-11-02T03:35:18;99824.03;;;10.16;100.00
38939;BME280;24211;49.980;19.776;2022-11-02T03:38:04;99822.38;;;10.15;100.00
38939;BME280;24211;49.980;19.776;2022-11-02T03:40:47;99822.78;;;10.12;100.00
38939;BME280;24211;49.980;19.776;2022-11-02T03:43:19;99830.00;;;10.12;100.00
38939;BME280;24211;49.980;19.776;2022-11-02T03:45:54;99832.84;;;10.10;100.00
38939;BME280;24211;49.980;19.776;2022-11-02T03:48:31;99824.22;;;10.08;100.00
38939;BME280;24211;49.980;19.776;2022-11-02T03:51:09;99823.59;;;10.06;100.00
38939;BME280;24211;49.980;19.776;2022-11-02T03:56:31;99820.75;;;10.01;100.00
38939;BME280;24211;49.980;19.776;2022-11-02T03:59:01;99828.97;;;10.00;100.00
38939;BME280;24211;49.980;19.776;2022-11-02T04:01:36;99836.34;;;9.98;100.00
38939;BME280;24211;49.980;19.776;2022-11-02T04:04:05;99833.91;;;9.96;100.00
38939;BME280;24211;49.980;19.776;2022-11-02T04:06:34;99835.97;;;9.94;100.00
38939;BME280;24211;49.980;19.776;2022-11-02T04:09:02;99838.03;;;9.92;100.00
38939;BME280;24211;49.980;19.776;2022-11-02T04:11:31;99836.78;;;9.88;100.00
38939;BME280;24211;49.980;19.776;2022-11-02T04:14:18;99838.00;;;9.85;100.00
38939;BME280;24211;49.980;19.776;2022-11-02T04:17:10;99839.25;;;9.83;100.00
38939;BME280;24211;49.980;19.776;2022-11-02T04:19:57;99837.63;;;9.82;100.00
38939;BME280;24211;49.980;19.776;2022-11-02T04:22:28;99835.13;;;9.80;100.00
38939;BME280;24211;49.980;19.776;2022-11-02T04:25:17;99842.53;;;9.78;100.00
38939;BME280;24211;49.980;19.776;2022-11-02T04:28:08;99841.94;;;9.76;100.00
38939;BME280;24211;49.980;19.776;2022-11-02T04:30:44;99844.81;;;9.75;100.00
38939;BME280;24211;49.980;19.776;2022-11-02T04:33:12;99842.16;;;9.75;100.00
38939;BME280;24211;49.980;19.776;2022-11-02T04:36:06;99845.00;;;9.73;100.00
38939;BME280;24211;49.980;19.776;2022-11-02T04:38:35;99847.88;;;9.72;100.00
38939;BME280;24211;49.980;19.776;2022-11-02T04:41:17;99852.19;;;9.73;100.00
38939;BME280;24211;49.980;19.776;2022-11-02T04:44:10;99852.41;;;9.71;100.00
38939;BME280;24211;49.980;19.776;2022-11-02T04:46:39;99847.88;;;9.72;100.00
38939;BME280;24211;49.980;19.776;2022-11-02T04:49:09;99848.91;;;9.71;100.00
38939;BME280;24211;49.980;19.776;2022-11-02T04:51:38;99856.13;;;9.70;100.00
38939;BME280;24211;49.980;19.776;2022-11-02T04:54:17;99864.91;;;9.71;100.00
38939;BME280;24211;49.980;19.776;2022-11-02T04:56:48;99853.22;;;9.72;100.00
38939;BME280;24211;49.980;19.776;2022-11-02T04:59:18;99852.41;;;9.71;100.00
38939;BME280;24211;49.980;19.776;2022-11-02T05:01:45;99855.91;;;9.72;100.00
38939;BME280;24211;49.980;19.776;2022-11-02T05:04:15;99843.38;;;9.72;100.00
38939;BME280;24211;49.980;19.776;2022-11-02T05:06:42;99849.72;;;9.71;100.00
38939;BME280;24211;49.980;19.776;2022-11-02T05:09:09;99846.22;;;9.71;100.00
38939;BME280;24211;49.980;19.776;2022-11-02T05:11:41;99854.84;;;9.73;100.00
38939;BME280;24211;49.980;19.776;2022-11-02T05:14:08;99857.75;;;9.71;100.00
38939;BME280;24211;49.980;19.776;2022-11-02T05:16:35;99865.53;;;9.73;100.00
38939;BME280;24211;49.980;19.776;2022-11-02T05:19:03;99858.56;;;9.72;100.00
38939;BME280;24211;49.980;19.776;2022-11-02T05:21:36;99860.19;;;9.73;100.00
38939;BME280;24211;49.980;19.776;2022-11-02T05:24:04;99857.75;;;9.71;100.00
38939;BME280;24211;49.980;19.776;2022-11-02T05:26:32;99858.56;;;9.72;100.00
38939;BME280;24211;49.980;19.776;2022-11-02T05:29:00;99862.06;;;9.72;100.00
38939;BME280;24211;49.980;19.776;2022-11-02T05:31:28;99870.88;;;9.73;100.00
38939;BME280;24211;49.980;19.776;2022-11-02T05:33:56;99870.88;;;9.73;100.00
38939;BME280;24211;49.980;19.776;2022-11-02T05:36:24;99864.72;;;9.72;100.00
38939;BME280;24211;49.980;19.776;2022-11-02T05:38:53;99861.84;;;9.74;100.00
38939;BME280;24211;49.980;19.776;2022-11-02T05:41:22;99875.19;;;9.74;100.00
38939;BME280;24211;49.980;19.776;2022-11-02T05:43:52;99869.84;;;9.74;100.00
38939;BME280;24211;49.980;19.776;2022-11-02T05:46:21;99874.34;;;9.73;100.00
38939;BME280;24211;49.980;19.776;2022-11-02T05:48:48;99872.53;;;9.74;100.00
38939;BME280;24211;49.980;19.776;2022-11-02T05:51:15;99872.53;;;9.74;100.00
38939;BME280;24211;49.980;19.776;2022-11-02T05:53:42;99886.88;;;9.73;100.00
38939;BME280;24211;49.980;19.776;2022-11-02T05:56:10;99878.88;;;9.73;100.00
38939;BME280;24211;49.980;19.776;2022-11-02T05:58:38;99889.53;;;9.73;100.00
38939;BME280;24211;49.980;19.776;2022-11-02T06:01:07;99896.53;;;9.74;100.00
38939;BME280;24211;49.980;19.776;2022-11-02T06:03:34;99898.19;;;9.75;100.00
38939;BME280;24211;49.980;19.776;2022-11-02T06:06:08;99888.53;;;9.74;100.00
38939;BME280;24211;49.980;19.776;2022-11-02T06:08:38;99891.81;;;9.76;100.00
38939;BME280;24211;49.980;19.776;2022-11-02T06:11:07;99884.41;;;9.78;100.00
38939;BME280;24211;49.980;19.776;2022-11-02T06:13:35;99891.84;;;9.82;100.00
38939;BME280;24211;49.980;19.776;2022-11-02T06:16:05;99892.22;;;9.86;100.00
38939;BME280;24211;49.980;19.776;2022-11-02T06:18:36;99888.13;;;9.90;100.00
38939;BME280;24211;49.980;19.776;2022-11-02T06:21:04;99892.63;;;9.96;100.00
38939;BME280;24211;49.980;19.776;2022-11-02T06:23:32;99894.69;;;10.01;100.00
38939;BME280;24211;49.980;19.776;2022-11-02T06:26:00;99882.75;;;10.03;100.00
38939;BME280;24211;49.980;19.776;2022-11-02T06:28:29;99902.72;;;10.07;100.00
38939;BME280;24211;49.980;19.776;2022-11-02T06:30:57;99897.16;;;10.09;100.00
38939;BME280;24211;49.980;19.776;2022-11-02T06:33:24;99897.97;;;10.09;100.00
38939;BME280;24211;49.980;19.776;2022-11-02T06:35:53;99902.91;;;10.12;100.00
38939;BME280;24211;49.980;19.776;2022-11-02T06:38:21;99904.56;;;10.13;100.00
38939;BME280;24211;49.980;19.776;2022-11-02T06:40:58;99904.16;;;10.16;100.00
38939;BME280;24211;49.980;19.776;2022-11-02T06:43:25;99908.66;;;10.22;100.00
38939;BME280;24211;49.980;19.776;2022-11-02T06:45:55;99899.81;;;10.28;100.00
38939;BME280;24211;49.980;19.776;2022-11-02T06:48:24;99898.97;;;10.34;100.00
38939;BME280;24211;49.980;19.776;2022-11-02T06:50:59;99900.22;;;10.38;100.00
38939;BME280;24211;49.980;19.776;2022-11-02T06:53:28;99893.81;;;10.39;100.00
38939;BME280;24211;49.980;19.776;2022-11-02T06:55:57;99899.59;;;10.43;100.00
38939;BME280;24211;49.980;19.776;2022-11-02T06:58:26;99902.03;;;10.44;100.00
38939;BME280;24211;49.980;19.776;2022-11-02T07:01:04;99902.03;;;10.44;100.00
38939;BME280;24211;49.980;19.776;2022-11-02T07:03:34;99905.75;;;10.43;100.00
38939;BME280;24211;49.980;19.776;2022-11-02T07:06:02;99905.94;;;10.42;100.00
38939;BME280;24211;49.980;19.776;2022-11-02T07:08:29;99912.72;;;10.44;100.00
38939;BME280;24211;49.980;19.776;2022-11-02T07:10:57;99919.31;;;10.48;100.00
38939;BME280;24211;49.980;19.776;2022-11-02T07:13:24;99920.31;;;10.54;100.00
38939;BME280;24211;49.980;19.776;2022-11-02T07:15:53;99910.63;;;10.60;100.00
38939;BME280;24211;49.980;19.776;2022-11-02T07:18:21;99910.63;;;10.66;100.00
38939;BME280;24211;49.980;19.776;2022-11-02T07:20:49;99907.31;;;10.71;100.00
38939;BME280;24211;49.980;19.776;2022-11-02T07:23:16;99907.69;;;10.74;100.00
38939;BME280;24211;49.980;19.776;2022-11-02T07:25:43;99908.13;;;10.78;100.00
38939;BME280;24211;49.980;19.776;2022-11-02T07:28:11;99903.16;;;10.81;100.00
38939;BME280;24211;49.980;19.776;2022-11-02T07:30:38;99899.88;;;10.86;100.00
38939;BME280;24211;49.980;19.776;2022-11-02T07:33:05;99903.53;;;10.91;100.00
38939;BME280;24211;49.980;19.776;2022-11-02T07:35:32;99897.94;;;10.99;100.00
38939;BME280;24211;49.980;19.776;2022-11-02T07:38:03;99903.44;;;11.11;100.00
38939;BME280;24211;49.980;19.776;2022-11-02T07:40:33;99905.03;;;11.18;100.00
38939;BME280;24211;49.980;19.776;2022-11-02T07:43:02;99896.72;;;11.33;100.00
38939;BME280;24211;49.980;19.776;2022-11-02T07:45:39;99899.50;;;11.51;100.00
38939;BME280;24211;49.980;19.776;2022-11-02T07:48:07;99903.38;;;11.87;100.00
38939;BME280;24211;49.980;19.776;2022-11-02T07:50:34;99890.97;;;12.53;100.00
38939;BME280;24211;49.980;19.776;2022-11-02T07:53:01;99895.16;;;12.67;100.00
38939;BME280;24211;49.980;19.776;2022-11-02T07:55:30;99897.06;;;12.78;100.00
38939;BME280;24211;49.980;19.776;2022-11-02T07:58:01;99896.50;;;12.76;100.00
38939;BME280;24211;49.980;19.776;2022-11-02T08:00:34;99894.13;;;12.50;100.00
38939;BME280;24211;49.980;19.776;2022-11-02T08:03:05;99896.03;;;12.25;100.00
38939;BME280;24211;49.980;19.776;2022-11-02T08:05:40;99901.66;;;12.17;100.00
38939;BME280;24211;49.980;19.776;2022-11-02T08:08:15;99900.63;;;12.18;100.00
38939;BME280;24211;49.980;19.776;2022-11-02T08:10:45;99901.38;;;12.25;100.00
38939;BME280;24211;49.980;19.776;2022-11-02T08:13:17;99897.59;;;12.32;100.00
38939;BME280;24211;49.980;19.776;2022-11-02T08:15:52;99900.34;;;12.44;100.00
38939;BME280;24211;49.980;19.776;2022-11-02T08:18:25;99897.97;;;12.54;100.00
38939;BME280;24211;49.980;19.776;2022-11-02T08:20:55;99896.13;;;12.55;100.00
38939;BME280;24211;49.980;19.776;2022-11-02T08:23:24;99901.25;;;12.56;100.00
38939;BME280;24211;49.980;19.776;2022-11-02T08:25:53;99899.31;;;12.63;100.00
38939;BME280;24211;49.980;19.776;2022-11-02T08:28:29;99899.59;;;12.73;100.00
38939;BME280;24211;49.980;19.776;2022-11-02T08:31:02;99892.44;;;12.85;100.00
38939;BME280;24211;49.980;19.776;2022-11-02T08:33:30;99895.56;;;13.00;100.00
38939;BME280;24211;49.980;19.776;2022-11-02T08:36:02;99884.09;;;13.12;100.00
38939;BME280;24211;49.980;19.776;2022-11-02T08:38:31;99885.41;;;13.21;100.00
38939;BME280;24211;49.980;19.776;2022-11-02T08:40:58;99880.63;;;13.23;100.00
38939;BME280;24211;49.980;19.776;2022-11-02T08:43:28;99881.94;;;13.32;100.00
38939;BME280;24211;49.980;19.776;2022-11-02T08:45:59;99879.66;;;13.47;100.00
38939;BME280;24211;49.980;19.776;2022-11-02T08:48:43;99871.53;;;13.65;100.00
38939;BME280;24211;49.980;19.776;2022-11-02T08:51:11;99872.50;;;13.82;100.00
38939;BME280;24211;49.980;19.776;2022-11-02T08:53:39;99876.00;;;13.94;100.00
38939;BME280;24211;49.980;19.776;2022-11-02T08:56:06;99873.44;;;13.99;100.00
38939;BME280;24211;49.980;19.776;2022-11-02T08:58:34;99875.31;;;14.10;100.00
38939;BME280;24211;49.980;19.776;2022-11-02T09:01:01;99868.53;;;14.19;100.00
38939;BME280;24211;49.980;19.776;2022-11-02T09:03:28;99865.41;;;14.22;100.00
38939;BME280;24211;49.980;19.776;2022-11-02T09:06:00;99864.59;;;14.33;100.00
38939;BME280;24211;49.980;19.776;2022-11-02T09:08:29;99865.97;;;14.48;100.00
38939;BME280;24211;49.980;19.776;2022-11-02T09:11:02;99858.56;;;14.55;100.00
38939;BME280;24211;49.980;19.776;2022-11-02T09:13:29;99857.88;;;14.59;100.00
38939;BME280;24211;49.980;19.776;2022-11-02T09:15:58;99860.91;;;14.63;100.00
38939;BME280;24211;49.980;19.776;2022-11-02T09:18:27;99860.06;;;14.74;100.00
38939;BME280;24211;49.980;19.776;2022-11-02T09:20:55;99851.81;;;14.92;100.00
38939;BME280;24211;49.980;19.776;2022-11-02T09:23:22;99850.72;;;15.04;100.00
38939;BME280;24211;49.980;19.776;2022-11-02T09:25:50;99844.22;;;15.17;100.00
38939;BME280;24211;49.980;19.776;2022-11-02T09:28:17;99846.03;;;15.28;100.00
38939;BME280;24211;49.980;19.776;2022-11-02T09:30:44;99845.72;;;15.41;100.00
38939;BME280;24211;49.980;19.776;2022-11-02T09:33:12;99838.59;;;15.47;100.00
38939;BME280;24211;49.980;19.776;2022-11-02T09:35:44;99837.28;;;15.49;100.00
38939;BME280;24211;49.980;19.776;2022-11-02T09:38:12;99828.47;;;15.54;100.00
38939;BME280;24211;49.980;19.776;2022-11-02T09:40:43;99823.44;;;15.57;100.00
38939;BME280;24211;49.980;19.776;2022-11-02T09:43:56;99831.25;;;15.76;100.00
38939;BME280;24211;49.980;19.776;2022-11-02T09:46:36;99827.81;;;15.80;100.00
38939;BME280;24211;49.980;19.776;2022-11-02T09:49:14;99821.09;;;15.83;100.00
38939;BME280;24211;49.980;19.776;2022-11-02T09:51:50;99827.22;;;15.95;100.00
38939;BME280;24211;49.980;19.776;2022-11-02T09:54:43;99823.13;;;16.09;100.00
38939;BME280;24211;49.980;19.776;2022-11-02T09:57:19;99813.53;;;16.18;100.00
38939;BME280;24211;49.980;19.776;2022-11-02T09:59:48;99816.88;;;16.25;100.00
38939;BME280;24211;49.980;19.776;2022-11-02T10:05:45;99814.63;;;16.55;100.00
38939;BME280;24211;49.980;19.776;2022-11-02T10:08:50;99809.47;;;16.75;100.00
38939;BME280;24211;49.980;19.776;2022-11-02T10:14:31;99809.16;;;16.98;100.00
38939;BME280;24211;49.980;19.776;2022-11-02T10:17:14;99809.44;;;16.97;100.00
38939;BME280;24211;49.980;19.776;2022-11-02T10:19:53;99806.00;;;17.07;100.00
38939;BME280;24211;49.980;19.776;2022-11-02T10:22:27;99799.06;;;17.16;100.00
38939;BME280;24211;49.980;19.776;2022-11-02T10:25:03;99795.25;;;17.38;100.00
38939;BME280;24211;49.980;19.776;2022-11-02T10:27:37;99794.97;;;17.40;100.00
38939;BME280;24211;49.980;19.776;2022-11-02T10:30:17;99799.97;;;17.53;100.00
38939;BME280;24211;49.980;19.776;2022-11-02T10:32:49;99788.19;;;17.69;100.00
38939;BME280;24211;49.980;19.776;2022-11-02T10:35:48;99790.84;;;17.59;100.00
38939;BME280;24211;49.980;19.776;2022-11-02T10:38:53;99782.78;;;17.64;100.00
38939;BME280;24211;49.980;19.776;2022-11-02T10:42:05;99784.78;;;17.79;100.00
38939;BME280;24211;49.980;19.776;2022-11-02T10:45:17;99778.94;;;17.97;100.00
38939;BME280;24211;49.980;19.776;2022-11-02T10:48:33;99779.84;;;18.12;100.00
38939;BME280;24211;49.980;19.776;2022-11-02T10:51:12;99784.47;;;18.17;100.00
38939;BME280;24211;49.980;19.776;2022-11-02T10:53:46;99773.94;;;18.20;100.00
38939;BME280;24211;49.980;19.776;2022-11-02T10:56:23;99783.19;;;18.29;100.00
38939;BME280;24211;49.980;19.776;2022-11-02T10:58:59;99779.69;;;18.34;100.00
38939;BME280;24211;49.980;19.776;2022-11-02T11:01:30;99772.44;;;18.45;100.00
38939;BME280;24211;49.980;19.776;2022-11-02T11:06:39;99780.66;;;18.65;100.00
38939;BME280;24211;49.980;19.776;2022-11-02T11:09:29;99782.81;;;18.73;100.00
38939;BME280;24211;49.980;19.776;2022-11-02T11:12:30;99780.13;;;18.78;100.00
38939;BME280;24211;49.980;19.776;2022-11-02T11:15:01;99775.00;;;18.81;100.00
38939;BME280;24211;49.980;19.776;2022-11-02T11:17:51;99783.66;;;18.73;100.00
38939;BME280;24211;49.980;19.776;2022-11-02T11:20:40;99780.72;;;19.00;100.00
38939;BME280;24211;49.980;19.776;2022-11-02T11:23:18;99780.19;;;18.98;98.74
38939;BME280;24211;49.980;19.776;2022-11-02T11:25:57;99763.97;;;19.23;93.33
38939;BME280;24211;49.980;19.776;2022-11-02T11:31:05;99765.84;;;19.08;94.42
38939;BME280;24211;49.980;19.776;2022-11-02T11:36:39;99767.09;;;18.70;100.00
38939;BME280;24211;49.980;19.776;2022-11-02T11:39:26;99763.81;;;18.58;100.00
38939;BME280;24211;49.980;19.776;2022-11-02T11:41:56;99768.59;;;18.41;100.00
38939;BME280;24211;49.980;19.776;2022-11-02T11:44:24;99772.34;;;18.29;100.00
38939;BME280;24211;49.980;19.776;2022-11-02T11:46:56;99773.91;;;18.15;100.00
38939;BME280;24211;49.980;19.776;2022-11-02T11:49:32;99777.16;;;18.12;100.00
38939;BME280;24211;49.980;19.776;2022-11-02T11:52:27;99771.78;;;18.22;97.96
38939;BME280;24211;49.980;19.776;2022-11-02T11:55:26;99772.94;;;18.37;92.83
38939;BME280;24211;49.980;19.776;2022-11-02T12:03:59;99763.88;;;18.78;83.05
38939;BME280;24211;49.980;19.776;2022-11-02T12:12:28;99770.97;;;19.09;81.05
38939;BME280;24211;49.980;19.776;2022-11-02T12:15:24;99765.03;;;19.02;80.58
38939;BME280;24211;49.980;19.776;2022-11-02T12:18:35;99755.28;;;18.96;79.46
38939;BME280;24211;49.980;19.776;2022-11-02T12:21:20;99759.59;;;18.92;82.24
38939;BME280;24211;49.980;19.776;2022-11-02T12:26:51;99744.47;;;19.16;81.40
38939;BME280;24211;49.980;19.776;2022-11-02T12:33:10;99745.81;;;19.34;80.36
38939;BME280;24211;49.980;19.776;2022-11-02T12:39:55;99733.63;;;19.16;85.09
38939;BME280;24211;49.980;19.776;2022-11-02T12:42:39;99737.44;;;19.45;83.67
38939;BME280;24211;49.980;19.776;2022-11-02T12:45:59;99728.47;;;19.25;89.24
38939;BME280;24211;49.980;19.776;2022-11-02T12:51:17;99732.00;;;19.35;89.92
38939;BME280;24211;49.980;19.776;2022-11-02T12:53:54;99728.41;;;19.90;83.80
38939;BME280;24211;49.980;19.776;2022-11-02T12:56:31;99725.44;;;19.87;80.96
38939;BME280;24211;49.980;19.776;2022-11-02T12:59:01;99725.47;;;19.82;82.41
38939;BME280;24211;49.980;19.776;2022-11-02T13:01:39;99729.72;;;20.08;78.80
38939;BME280;24211;49.980;19.776;2022-11-02T13:04:27;99731.38;;;19.99;78.60
38939;BME280;24211;49.980;19.776;2022-11-02T13:07:10;99727.63;;;19.90;79.64
38939;BME280;24211;49.980;19.776;2022-11-02T13:10:02;99721.38;;;19.84;77.49
38939;BME280;24211;49.980;19.776;2022-11-02T13:12:35;99720.88;;;19.77;76.40
38939;BME280;24211;49.980;19.776;2022-11-02T13:15:05;99726.53;;;19.86;74.96
38939;BME280;24211;49.980;19.776;2022-11-02T13:18:02;99724.34;;;19.88;75.07
38939;BME280;24211;49.980;19.776;2022-11-02T13:20:51;99729.78;;;19.88;75.02
38939;BME280;24211;49.980;19.776;2022-11-02T13:23:40;99724.41;;;19.68;75.66
38939;BME280;24211;49.980;19.776;2022-11-02T13:26:36;99728.75;;;19.58;79.17
38939;BME280;24211;49.980;19.776;2022-11-02T13:32:13;99728.22;;;19.56;83.96
38939;BME280;24211;49.980;19.776;2022-11-02T13:34:47;99728.19;;;19.72;83.62
38939;BME280;24211;49.980;19.776;2022-11-02T13:37:34;99723.84;;;19.66;82.42
38939;BME280;24211;49.980;19.776;2022-11-02T13:40:23;99737.16;;;19.57;84.27
38939;BME280;24211;49.980;19.776;2022-11-02T13:45:48;99737.41;;;19.35;85.24
38939;BME280;24211;49.980;19.776;2022-11-02T13:51:37;99737.94;;;19.22;87.40
38939;BME280;24211;49.980;19.776;2022-11-02T13:56:55;99748.25;;;19.05;88.51
38939;BME280;24211;49.980;19.776;2022-11-02T13:59:32;99746.63;;;18.94;91.81
38939;BME280;24211;49.980;19.776;2022-11-02T14:02:12;99745.47;;;18.80;95.58
38939;BME280;24211;49.980;19.776;2022-11-02T14:04:43;99757.38;;;18.74;98.71
38939;BME280;24211;49.980;19.776;2022-11-02T14:10:13;99757.88;;;18.56;100.00
38939;BME280;24211;49.980;19.776;2022-11-02T14:12:47;99757.59;;;18.47;100.00
38939;BME280;24211;49.980;19.776;2022-11-02T14:25:48;99760.34;;;18.05;100.00
38939;BME280;24211;49.980;19.776;2022-11-02T14:36:23;99770.97;;;17.75;100.00
38939;BME280;24211;49.980;19.776;2022-11-02T14:42:05;99765.91;;;17.52;100.00
38939;BME280;24211;49.980;19.776;2022-11-02T14:45:12;99768.53;;;17.42;100.00
38939;BME280;24211;49.980;19.776;2022-11-02T14:47:55;99767.34;;;17.33;100.00
38939;BME280;24211;49.980;19.776;2022-11-02T14:50:24;99769.72;;;17.24;100.00
38939;BME280;24211;49.980;19.776;2022-11-02T14:53:04;99770.75;;;17.18;100.00
38939;BME280;24211;49.980;19.776;2022-11-02T14:55:36;99770.63;;;17.08;100.00
38939;BME280;24211;49.980;19.776;2022-11-02T14:58:16;99769.75;;;16.97;100.00
38939;BME280;24211;49.980;19.776;2022-11-02T15:08:57;99776.34;;;16.58;100.00